Time;durP1;ratioP1;P1;durP2;ratioP2;P2;SDS_P1;SDS_P2;PMS_P1;PMS_P2;Temp;Humidity;BMP_temperature;BMP_pressure;BME280_temperature;BME280_humidity;BME280_pressure;Samples;Min_cycle;Max_cycle;Signal;HPM_P1;HPM_P2
2022/10/23 03:01:36;;;;;;;;;;;13.90;99.90;;;;;;5675207;23;19933;-71
2022/10/23 03:04:05;;;;;;;;;;;13.80;99.90;;;;;;5022964;28;19990;-70
2022/10/23 03:06:32;;;;;;;;;;;13.80;99.90;;;;;;5017718;28;19979;-70
2022/10/23 03:09:00;;;;;;;;;;;13.80;99.90;;;;;;5022366;28;19933;-71
2022/10/23 03:11:27;;;;;;;;;;;13.80;99.90;;;;;;5011096;28;19930;-71
2022/10/23 03:13:55;;;;;;;;;;;13.90;99.90;;;;;;4999238;28;20299;-70
2022/10/23 03:16:22;;;;;;;;;;;14.00;99.90;;;;;;5002609;28;19941;-70
2022/10/23 03:18:54;;;;;;;;;;;14.00;99.90;;;;;;5002560;28;19932;-70
2022/10/23 03:21:21;;;;;;;;;;;14.00;99.90;;;;;;5002190;28;20410;-70
2022/10/23 03:23:52;;;;;;;;;;;14.00;99.90;;;;;;5004463;28;19969;-70
2022/10/23 03:26:25;;;;;;;;;;;14.00;99.90;;;;;;4997415;28;20331;-69
2022/10/23 03:28:52;;;;;;;;;;;14.00;99.90;;;;;;4999861;28;19952;-69
2022/10/23 03:31:20;;;;;;;;;;;13.90;99.90;;;;;;5002574;28;19926;-70
2022/10/23 03:33:54;;;;;;;;;;;13.90;99.90;;;;;;5007820;28;19933;-70
2022/10/23 03:36:22;;;;;;;;;;;13.90;99.90;;;;;;5013975;28;19931;-70
2022/10/23 03:38:49;;;;;;;;;;;13.90;99.90;;;;;;5002834;28;19929;-69
2022/10/23 03:41:15;;;;;;;;;;;13.90;99.90;;;;;;5007609;28;19926;-70
2022/10/23 03:43:42;;;;;;;;;;;14.00;99.90;;;;;;5002287;28;20355;-70
2022/10/23 03:46:11;;;;;;;;;;;14.00;99.90;;;;;;5007188;28;19926;-69
2022/10/23 03:48:40;;;;;;;;;;;13.90;99.90;;;;;;4999851;28;20281;-71
2022/10/23 03:51:09;;;;;;;;;;;13.90;99.90;;;;;;5001284;28;19929;-70
2022/10/23 03:53:36;;;;;;;;;;;13.80;99.90;;;;;;4995374;28;19970;-70
2022/10/23 03:56:04;;;;;;;;;;;13.90;99.90;;;;;;5012039;28;19925;-70
2022/10/23 03:58:31;;;;;;;;;;;13.90;99.90;;;;;;5002426;28;20020;-70
2022/10/23 04:00:58;;;;;;;;;;;13.90;99.90;;;;;;5004056;28;20381;-70
2022/10/23 04:03:24;;;;;;;;;;;13.90;99.90;;;;;;5002803;28;20390;-71
2022/10/23 04:05:52;;;;;;;;;;;13.90;99.90;;;;;;4997692;28;19941;-69
2022/10/23 04:08:22;;;;;;;;;;;13.90;99.90;;;;;;5004492;28;19933;-70
2022/10/23 04:10:53;;;;;;;;;;;13.90;99.90;;;;;;5010229;28;20404;-70
2022/10/23 04:13:26;;;;;;;;;;;13.90;99.90;;;;;;4997498;28;19930;-70
2022/10/23 04:15:53;;;;;;;;;;;14.00;99.90;;;;;;5003206;28;20358;-70
2022/10/23 04:18:20;;;;;;;;;;;13.90;99.90;;;;;;5000976;28;19925;-70
2022/10/23 04:20:47;;;;;;;;;;;14.00;99.90;;;;;;5005551;28;19933;-70
2022/10/23 04:23:14;;;;;;;;;;;13.90;99.90;;;;;;5008702;28;19979;-69
2022/10/23 04:25:44;;;;;;;;;;;13.90;99.90;;;;;;5010339;28;19937;-70
2022/10/23 04:28:11;;;;;;;;;;;13.90;99.90;;;;;;4999901;28;19925;-70
2022/10/23 04:30:40;;;;;;;;;;;13.90;99.90;;;;;;4998628;28;20025;-70
2022/10/23 04:33:08;;;;;;;;;;;13.90;99.90;;;;;;5005927;28;19925;-70
2022/10/23 04:35:35;;;;;;;;;;;13.90;99.90;;;;;;5002069;28;20395;-68
2022/10/23 04:38:02;;;;;;;;;;;14.00;99.90;;;;;;5004960;28;19926;-70
2022/10/23 04:40:29;;;;;;;;;;;14.00;99.90;;;;;;5001313;28;19932;-70
2022/10/23 04:42:57;;;;;;;;;;;14.00;99.90;;;;;;4999008;28;19926;-70
2022/10/23 04:45:24;;;;;;;;;;;14.00;99.90;;;;;;5000830;28;19933;-70
2022/10/23 04:47:52;;;;;;;;;;;14.00;99.90;;;;;;5010793;28;19929;-70
2022/10/23 04:50:20;;;;;;;;;;;14.00;99.90;;;;;;5005905;28;19979;-70
2022/10/23 04:53:05;;;;;;;;;;;14.00;99.90;;;;;;5009474;28;19940;-70
2022/10/23 04:55:58;;;;;;;;;;;14.00;99.90;;;;;;5009917;28;19926;-71
2022/10/23 04:58:36;;;;;;;;;;;13.90;99.90;;;;;;5007914;28;19926;-71
2022/10/23 05:01:03;;;;;;;;;;;13.90;99.90;;;;;;4995832;28;19932;-70
2022/10/23 05:03:30;;;;;;;;;;;13.80;99.90;;;;;;4998911;28;19933;-70
2022/10/23 05:05:57;;;;;;;;;;;13.80;99.90;;;;;;4999525;28;19926;-70
2022/10/23 05:08:44;;;;;;;;;;;13.80;99.90;;;;;;4994088;28;20047;-70
2022/10/23 05:11:30;;;;;;;;;;;13.80;99.90;;;;;;5015542;28;19925;-70
2022/10/23 05:13:58;;;;;;;;;;;13.80;99.90;;;;;;5003502;28;19936;-71
2022/10/23 05:16:32;;;;;;;;;;;13.70;99.90;;;;;;5003836;28;20300;-70
2022/10/23 05:18:59;;;;;;;;;;;13.70;99.90;;;;;;5006212;28;20036;-71
2022/10/23 05:21:28;;;;;;;;;;;13.70;99.90;;;;;;5010703;28;19984;-71
2022/10/23 05:24:00;;;;;;;;;;;13.60;99.90;;;;;;5004151;28;19930;-70
2022/10/23 05:26:27;;;;;;;;;;;13.70;99.90;;;;;;5010342;28;20031;-72
2022/10/23 05:28:54;;;;;;;;;;;13.60;99.90;;;;;;5009160;28;19926;-69
2022/10/23 05:31:24;;;;;;;;;;;13.60;99.90;;;;;;5010423;28;19932;-71
2022/10/23 05:33:51;;;;;;;;;;;13.70;99.90;;;;;;5004590;28;19925;-69
2022/10/23 05:36:20;;;;;;;;;;;13.60;99.90;;;;;;5010247;28;19925;-69
2022/10/23 05:38:51;;;;;;;;;;;13.60;99.90;;;;;;5001906;28;19984;-70
2022/10/23 05:41:19;;;;;;;;;;;13.60;99.90;;;;;;4998528;28;19929;-69
2022/10/23 05:43:46;;;;;;;;;;;13.60;99.90;;;;;;5003258;28;19926;-70
2022/10/23 05:46:44;;;;;;;;;;;13.60;99.90;;;;;;4947158;28;19933;-70
2022/10/23 05:49:17;;;;;;;;;;;13.60;99.90;;;;;;4997184;28;19929;-70
2022/10/23 05:52:03;;;;;;;;;;;13.60;99.90;;;;;;5000114;28;19948;-69
2022/10/23 05:54:39;;;;;;;;;;;13.60;99.90;;;;;;5007184;28;19929;-71
2022/10/23 05:57:33;;;;;;;;;;;13.60;99.90;;;;;;5000400;28;19926;-70
2022/10/23 06:00:05;;;;;;;;;;;13.60;99.90;;;;;;4994064;28;19929;-70
2022/10/23 06:02:42;;;;;;;;;;;13.60;99.90;;;;;;4995147;28;19932;-71
2022/10/23 06:05:22;;;;;;;;;;;13.60;99.90;;;;;;5005926;28;20331;-70
2022/10/23 06:08:11;;;;;;;;;;;13.60;99.90;;;;;;4992828;28;19932;-70
2022/10/23 06:10:38;;;;;;;;;;;13.60;99.90;;;;;;4996870;28;19936;-70
2022/10/23 06:13:07;;;;;;;;;;;13.70;99.90;;;;;;4996481;28;19931;-70
2022/10/23 06:15:34;;;;;;;;;;;13.70;99.90;;;;;;4998913;28;19965;-71
2022/10/23 06:18:23;;;;;;;;;;;13.70;99.90;;;;;;4997894;28;20016;-70
2022/10/23 06:20:59;;;;;;;;;;;13.70;99.90;;;;;;5008180;28;19925;-70
2022/10/23 06:23:27;;;;;;;;;;;13.70;99.90;;;;;;5008885;28;19926;-71
2022/10/23 06:26:18;;;;;;;;;;;13.70;99.90;;;;;;4990479;28;19937;-71
2022/10/23 06:29:05;;;;;;;;;;;13.80;99.90;;;;;;4997935;28;19926;-70
2022/10/23 06:31:32;;;;;;;;;;;13.80;99.90;;;;;;4998768;28;19976;-71
2022/10/23 06:34:00;;;;;;;;;;;13.80;99.90;;;;;;4994724;28;19937;-70
2022/10/23 06:36:29;;;;;;;;;;;13.80;99.90;;;;;;4998025;28;19976;-71
2022/10/23 06:39:07;;;;;;;;;;;13.80;99.90;;;;;;5006641;28;19961;-71
2022/10/23 06:41:52;;;;;;;;;;;13.80;99.90;;;;;;4999111;28;19937;-71
2022/10/23 06:44:39;;;;;;;;;;;13.90;99.90;;;;;;5006009;28;19937;-70
2022/10/23 06:47:11;;;;;;;;;;;13.90;99.90;;;;;;5005924;28;19926;-71
2022/10/23 06:50:15;;;;;;;;;;;14.00;99.90;;;;;;5001081;28;19932;-71
2022/10/23 06:52:44;;;;;;;;;;;13.90;99.90;;;;;;5005041;28;19929;-71
2022/10/23 06:55:11;;;;;;;;;;;13.90;99.90;;;;;;5003725;28;20303;-70
2022/10/23 06:57:38;;;;;;;;;;;13.90;99.90;;;;;;5008301;28;19926;-70
2022/10/23 07:00:06;;;;;;;;;;;13.90;99.90;;;;;;4996000;28;20029;-71
2022/10/23 07:02:42;;;;;;;;;;;14.00;99.90;;;;;;5003340;28;19925;-70
2022/10/23 07:05:09;;;;;;;;;;;14.00;99.90;;;;;;5003176;28;19926;-71
2022/10/23 07:07:37;;;;;;;;;;;14.00;99.90;;;;;;5007144;28;19929;-70
2022/10/23 07:10:05;;;;;;;;;;;14.10;99.90;;;;;;4999601;28;20033;-71
2022/10/23 07:12:42;;;;;;;;;;;14.10;99.90;;;;;;5010614;28;20024;-71
2022/10/23 07:15:39;;;;;;;;;;;14.20;99.90;;;;;;5006753;28;19935;-69
2022/10/23 07:18:13;;;;;;;;;;;14.20;99.90;;;;;;5003510;28;19930;-71
2022/10/23 07:21:11;;;;;;;;;;;14.30;99.90;;;;;;5005149;28;19933;-71
2022/10/23 07:23:41;;;;;;;;;;;14.30;99.90;;;;;;5011347;28;19933;-71
2022/10/23 07:26:09;;;;;;;;;;;14.30;99.90;;;;;;5000040;28;19933;-71
2022/10/23 07:28:36;;;;;;;;;;;14.40;99.90;;;;;;5005171;28;19925;-70
2022/10/23 07:31:03;;;;;;;;;;;14.40;99.90;;;;;;5013732;28;19961;-70
2022/10/23 07:33:50;;;;;;;;;;;14.40;99.90;;;;;;5006909;28;19973;-72
2022/10/23 07:36:19;;;;;;;;;;;14.50;99.90;;;;;;5005700;28;20315;-71
2022/10/23 07:38:48;;;;;;;;;;;14.60;99.90;;;;;;5003686;28;19933;-71
2022/10/23 07:41:15;;;;;;;;;;;14.60;99.90;;;;;;5003143;28;19926;-70
2022/10/23 07:43:42;;;;;;;;;;;14.70;99.90;;;;;;4998902;28;20301;-70
2022/10/23 07:46:09;;;;;;;;;;;14.80;99.90;;;;;;5008634;28;19925;-70
2022/10/23 07:48:39;;;;;;;;;;;14.90;99.90;;;;;;5002618;28;19926;-70
2022/10/23 07:51:09;;;;;;;;;;;15.00;99.90;;;;;;5000342;28;20389;-70
2022/10/23 07:53:41;;;;;;;;;;;15.10;99.90;;;;;;5005719;28;20017;-69
2022/10/23 07:56:32;;;;;;;;;;;15.30;99.90;;;;;;5010493;28;19933;-70
2022/10/23 07:59:13;;;;;;;;;;;15.40;99.90;;;;;;5005361;28;19925;-70
2022/10/23 08:01:44;;;;;;;;;;;15.60;99.90;;;;;;5000708;28;19926;-70
2022/10/23 08:04:11;;;;;;;;;;;15.80;99.90;;;;;;4998198;28;19961;-71
2022/10/23 08:06:46;;;;;;;;;;;15.90;99.90;;;;;;5011776;28;19940;-71
2022/10/23 08:09:13;;;;;;;;;;;16.00;99.90;;;;;;5000136;28;19972;-70
2022/10/23 08:11:43;;;;;;;;;;;16.00;99.90;;;;;;5000189;28;19933;-71
2022/10/23 08:14:14;;;;;;;;;;;16.10;99.90;;;;;;5004410;28;19938;-70
2022/10/23 08:16:43;;;;;;;;;;;16.20;99.90;;;;;;5000886;28;19953;-70
2022/10/23 08:19:16;;;;;;;;;;;16.30;99.90;;;;;;5000777;28;19925;-71
2022/10/23 08:21:45;;;;;;;;;;;16.40;99.90;;;;;;5001856;28;19988;-70
2022/10/23 08:24:13;;;;;;;;;;;16.50;99.90;;;;;;5006765;28;19973;-70
2022/10/23 08:26:42;;;;;;;;;;;16.50;99.90;;;;;;5002859;28;19933;-70
2022/10/23 08:29:10;;;;;;;;;;;16.60;99.90;;;;;;5010267;28;19965;-70
2022/10/23 08:31:37;;;;;;;;;;;16.60;99.90;;;;;;4997171;28;20502;-70
2022/10/23 08:34:15;;;;;;;;;;;16.70;99.90;;;;;;5001113;28;19926;-71
2022/10/23 08:36:43;;;;;;;;;;;16.90;99.90;;;;;;5004624;28;20020;-70
2022/10/23 08:39:11;;;;;;;;;;;17.00;99.90;;;;;;4998089;28;19925;-71
2022/10/23 08:41:50;;;;;;;;;;;17.20;99.90;;;;;;5011129;28;19932;-70
2022/10/23 08:44:20;;;;;;;;;;;17.30;99.90;;;;;;4998215;28;19965;-68
2022/10/23 08:46:50;;;;;;;;;;;17.50;99.90;;;;;;5000242;28;20000;-70
2022/10/23 08:49:39;;;;;;;;;;;17.60;99.90;;;;;;5004874;28;19933;-70
2022/10/23 08:52:12;;;;;;;;;;;17.80;99.90;;;;;;4999126;28;19932;-71
2022/10/23 08:54:41;;;;;;;;;;;17.90;99.90;;;;;;5011773;28;19925;-70
2022/10/23 08:57:12;;;;;;;;;;;18.00;99.90;;;;;;4992712;28;19972;-71
2022/10/23 08:59:44;;;;;;;;;;;18.10;99.90;;;;;;5003060;28;19926;-71
2022/10/23 09:02:15;;;;;;;;;;;18.30;99.90;;;;;;4999261;28;19933;-72
2022/10/23 09:04:45;;;;;;;;;;;18.40;99.90;;;;;;5008265;28;19925;-71
2022/10/23 09:07:16;;;;;;;;;;;18.60;99.90;;;;;;5000613;28;19926;-71
2022/10/23 09:09:49;;;;;;;;;;;18.50;99.90;;;;;;5003220;28;19925;-71
2022/10/23 09:12:20;;;;;;;;;;;18.40;99.90;;;;;;4993424;28;19926;-71
2022/10/23 09:14:54;;;;;;;;;;;18.40;99.90;;;;;;5016515;28;19934;-71
2022/10/23 09:17:23;;;;;;;;;;;18.40;99.90;;;;;;5005506;28;19927;-69
2022/10/23 09:19:53;;;;;;;;;;;18.30;99.90;;;;;;5002779;28;19929;-69
2022/10/23 09:22:20;;;;;;;;;;;18.40;99.90;;;;;;5006466;28;20388;-70
2022/10/23 09:24:47;;;;;;;;;;;18.30;99.90;;;;;;4996079;28;19934;-71
2022/10/23 09:27:15;;;;;;;;;;;18.30;99.90;;;;;;5002722;28;19932;-70
2022/10/23 09:29:48;;;;;;;;;;;18.20;99.90;;;;;;5002159;28;19932;-71
2022/10/23 09:32:15;;;;;;;;;;;18.10;99.90;;;;;;5006534;28;19925;-71
2022/10/23 09:34:50;;;;;;;;;;;18.00;99.90;;;;;;4998920;28;19972;-71
2022/10/23 09:37:22;;;;;;;;;;;18.10;99.90;;;;;;4993875;28;19926;-70
2022/10/23 09:39:49;;;;;;;;;;;18.10;99.90;;;;;;4997470;28;19926;-71
2022/10/23 09:42:21;;;;;;;;;;;18.10;99.90;;;;;;4998513;28;19972;-71
2022/10/23 09:44:51;;;;;;;;;;;18.00;99.90;;;;;;4995977;28;19926;-70
2022/10/23 09:47:19;;;;;;;;;;;18.00;99.90;;;;;;4997441;28;19929;-70
2022/10/23 09:49:48;;;;;;;;;;;17.90;99.90;;;;;;5001774;28;19926;-70
2022/10/23 09:52:22;;;;;;;;;;;17.90;99.90;;;;;;5002108;28;19925;-70
2022/10/23 09:54:50;;;;;;;;;;;17.90;99.90;;;;;;4994840;28;20388;-70
2022/10/23 09:57:21;;;;;;;;;;;17.80;99.90;;;;;;5002907;28;20380;-70
2022/10/23 09:59:52;;;;;;;;;;;17.80;99.90;;;;;;5001601;28;19925;-70
2022/10/23 10:02:21;;;;;;;;;;;17.90;99.90;;;;;;5000108;28;19933;-70
2022/10/23 10:05:20;;;;;;;;;;;17.90;99.90;;;;;;5022276;28;19973;-70
2022/10/23 10:07:53;;;;;;;;;;;17.90;99.90;;;;;;4996747;28;20401;-70
2022/10/23 10:10:20;;;;;;;;;;;17.90;99.90;;;;;;4997793;28;19987;-71
2022/10/23 10:12:49;;;;;;;;;;;18.00;99.90;;;;;;4993507;28;19933;-72
2022/10/23 10:15:21;;;;;;;;;;;18.00;99.90;;;;;;4997627;28;19926;-72
2022/10/23 10:17:52;;;;;;;;;;;18.00;99.90;;;;;;5007105;28;19925;-70
2022/10/23 10:20:28;;;;;;;;;;;18.00;99.90;;;;;;4998463;28;19925;-70
2022/10/23 10:22:57;;;;;;;;;;;17.90;99.90;;;;;;5003021;28;20388;-70
2022/10/23 10:25:29;;;;;;;;;;;17.90;99.90;;;;;;5010336;28;19925;-70
2022/10/23 10:28:01;;;;;;;;;;;17.80;99.90;;;;;;5007405;28;19926;-70
2022/10/23 10:30:34;;;;;;;;;;;17.80;99.90;;;;;;5005728;28;19929;-70
2022/10/23 10:33:04;;;;;;;;;;;17.70;99.90;;;;;;5007455;28;20402;-69
2022/10/23 10:35:37;;;;;;;;;;;17.70;99.90;;;;;;5000306;28;19929;-71
2022/10/23 10:38:13;;;;;;;;;;;17.70;99.90;;;;;;5006794;28;20036;-70
2022/10/23 10:40:42;;;;;;;;;;;17.60;99.90;;;;;;4994491;28;20389;-68
2022/10/23 10:43:13;;;;;;;;;;;17.60;99.90;;;;;;5003239;28;20311;-71
2022/10/23 10:45:43;;;;;;;;;;;17.50;99.90;;;;;;5002362;28;19926;-70
2022/10/23 10:48:16;;;;;;;;;;;17.50;99.90;;;;;;5000823;28;19926;-71
2022/10/23 10:51:23;;;;;;;;;;;17.50;99.90;;;;;;4971431;28;19976;-71
2022/10/23 10:53:56;;;;;;;;;;;17.50;99.90;;;;;;4967412;28;19930;-70
2022/10/23 10:56:25;;;;;;;;;;;17.50;99.90;;;;;;4995885;28;20008;-70
2022/10/23 10:58:54;;;;;;;;;;;17.60;99.90;;;;;;5000793;28;20312;-69
2022/10/23 11:01:26;;;;;;;;;;;17.70;99.90;;;;;;4995704;28;19937;-69
2022/10/23 11:03:55;;;;;;;;;;;17.80;99.90;;;;;;5006212;28;19925;-70
2022/10/23 11:06:23;;;;;;;;;;;18.00;99.90;;;;;;4999034;28;19930;-70
2022/10/23 11:08:50;;;;;;;;;;;18.10;99.90;;;;;;4999606;28;19926;-68
2022/10/23 11:11:19;;;;;;;;;;;18.20;99.90;;;;;;4994652;28;19925;-71
2022/10/23 11:13:46;;;;;;;;;;;18.30;99.90;;;;;;5000434;28;19937;-69
2022/10/23 11:16:17;;;;;;;;;;;18.60;99.90;;;;;;5013481;28;19932;-71
2022/10/23 11:18:48;;;;;;;;;;;18.90;99.90;;;;;;4996586;28;19930;-70
2022/10/23 11:21:22;;;;;;;;;;;19.70;99.90;;;;;;4991177;28;19930;-71
2022/10/23 11:24:05;;;;;;;;;;;20.70;99.90;;;;;;4999066;28;19926;-71
2022/10/23 11:26:40;;;;;;;;;;;21.80;99.90;;;;;;5005581;28;20390;-71
2022/10/23 11:29:17;;;;;;;;;;;23.30;99.90;;;;;;5000605;28;19926;-70
2022/10/23 11:31:45;;;;;;;;;;;23.40;99.90;;;;;;5006827;28;20388;-71
2022/10/23 11:34:33;;;;;;;;;;;23.50;99.90;;;;;;4998529;28;19926;-71
2022/10/23 11:37:03;;;;;;;;;;;24.80;99.90;;;;;;4974010;28;19926;-71
2022/10/23 11:39:31;;;;;;;;;;;25.20;99.90;;;;;;4992689;28;19925;-71
2022/10/23 11:42:13;;;;;;;;;;;25.00;99.90;;;;;;4995808;28;19925;-71
2022/10/23 11:44:42;;;;;;;;;;;24.70;99.90;;;;;;4992824;28;19926;-70
2022/10/23 11:47:28;;;;;;;;;;;24.50;99.90;;;;;;5001291;28;19926;-71
2022/10/23 11:50:11;;;;;;;;;;;24.70;99.90;;;;;;4999217;28;19926;-72
2022/10/23 11:52:40;;;;;;;;;;;24.20;99.90;;;;;;4996414;28;19989;-71
2022/10/23 11:55:16;;;;;;;;;;;24.10;99.90;;;;;;5004490;28;19936;-71
2022/10/23 11:57:44;;;;;;;;;;;23.80;99.90;;;;;;5005363;28;20495;-71
2022/10/23 12:00:20;;;;;;;;;;;23.70;99.90;;;;;;4996981;28;19968;-70
2022/10/23 12:02:50;;;;;;;;;;;23.80;99.90;;;;;;5010331;28;19981;-71
2022/10/23 12:05:26;;;;;;;;;;;23.70;99.90;;;;;;4996852;28;19933;-70
2022/10/23 12:07:55;;;;;;;;;;;23.60;99.90;;;;;;5004176;28;19956;-71
2022/10/23 12:10:26;;;;;;;;;;;23.30;99.90;;;;;;5008881;28;19940;-70
2022/10/23 12:12:57;;;;;;;;;;;23.20;99.90;;;;;;5008696;28;19933;-71
2022/10/23 12:15:24;;;;;;;;;;;23.10;99.90;;;;;;5013989;28;19925;-71
2022/10/23 12:17:53;;;;;;;;;;;22.50;99.90;;;;;;4997319;28;20016;-71
2022/10/23 12:20:30;;;;;;;;;;;21.60;99.90;;;;;;5009734;28;19933;-71
2022/10/23 12:23:13;;;;;;;;;;;21.10;99.90;;;;;;4989124;28;20209;-69
2022/10/23 12:25:45;;;;;;;;;;;20.80;99.90;;;;;;5000017;28;20418;-72
2022/10/23 12:28:29;;;;;;;;;;;20.40;99.90;;;;;;4996229;28;19937;-71
2022/10/23 12:31:01;;;;;;;;;;;20.30;99.90;;;;;;5001837;28;19957;-72
2022/10/23 12:33:32;;;;;;;;;;;20.10;99.90;;;;;;4998569;28;19926;-71
2022/10/23 12:36:23;;;;;;;;;;;20.10;99.90;;;;;;5005317;28;20288;-70
2022/10/23 12:38:50;;;;;;;;;;;20.00;99.90;;;;;;4992127;28;19925;-71
2022/10/23 12:41:21;;;;;;;;;;;20.00;99.90;;;;;;5006944;28;19933;-70
2022/10/23 12:43:51;;;;;;;;;;;19.90;99.90;;;;;;5008917;28;19932;-71
2022/10/23 12:46:25;;;;;;;;;;;19.90;99.90;;;;;;5000690;28;19926;-71
2022/10/23 12:48:53;;;;;;;;;;;20.00;99.90;;;;;;4996832;28;19929;-71
2022/10/23 12:51:22;;;;;;;;;;;20.00;99.90;;;;;;5004028;28;19926;-71
2022/10/23 12:53:49;;;;;;;;;;;19.90;99.90;;;;;;5008815;28;20304;-70
2022/10/23 12:56:16;;;;;;;;;;;19.80;99.90;;;;;;4999606;28;19933;-69
2022/10/23 12:58:48;;;;;;;;;;;19.80;99.90;;;;;;5006113;28;19941;-70
2022/10/23 13:01:22;;;;;;;;;;;19.80;99.90;;;;;;5004728;28;19991;-71
2022/10/23 13:03:49;;;;;;;;;;;20.00;99.90;;;;;;4994892;28;19925;-71
2022/10/23 13:06:16;;;;;;;;;;;20.10;99.90;;;;;;4994219;28;19926;-70
2022/10/23 13:08:44;;;;;;;;;;;20.20;99.90;;;;;;5001834;28;19925;-70
2022/10/23 13:11:31;;;;;;;;;;;20.30;99.90;;;;;;4994928;28;19933;-71
2022/10/23 13:14:10;;;;;;;;;;;20.40;99.90;;;;;;5002852;28;20451;-70
2022/10/23 13:16:37;;;;;;;;;;;20.40;99.90;;;;;;5001617;28;19925;-71
2022/10/23 13:19:04;;;;;;;;;;;20.40;99.90;;;;;;5007775;28;19933;-71
2022/10/23 13:21:31;;;;;;;;;;;20.40;99.90;;;;;;5006061;28;19925;-71
2022/10/23 13:23:58;;;;;;;;;;;20.40;99.90;;;;;;5011541;28;19933;-71
2022/10/23 13:26:32;;;;;;;;;;;20.50;99.90;;;;;;4996225;28;19926;-71
2022/10/23 13:28:59;;;;;;;;;;;20.50;99.90;;;;;;4996877;28;19933;-71
2022/10/23 13:31:32;;;;;;;;;;;20.40;99.90;;;;;;5001005;28;19925;-70
2022/10/23 13:34:14;;;;;;;;;;;20.40;99.90;;;;;;4995732;28;19925;-72
2022/10/23 13:36:49;;;;;;;;;;;20.40;99.90;;;;;;5007117;28;19929;-70
2022/10/23 13:39:16;;;;;;;;;;;20.50;99.90;;;;;;5008809;28;19932;-69
2022/10/23 13:41:44;;;;;;;;;;;20.50;99.90;;;;;;5002762;28;19925;-68
2022/10/23 13:44:11;;;;;;;;;;;20.50;99.90;;;;;;4999654;28;19976;-69
2022/10/23 13:46:40;;;;;;;;;;;20.50;99.90;;;;;;5003576;28;19933;-69
2022/10/23 13:49:07;;;;;;;;;;;20.50;99.90;;;;;;4996913;28;19926;-70
2022/10/23 13:51:35;;;;;;;;;;;20.50;99.90;;;;;;4999109;28;19979;-70
2022/10/23 13:54:02;;;;;;;;;;;20.50;99.90;;;;;;5007677;28;19929;-70
2022/10/23 13:56:29;;;;;;;;;;;20.50;99.90;;;;;;5003098;28;19933;-69
2022/10/23 13:58:55;;;;;;;;;;;20.50;99.90;;;;;;5009075;28;19926;-70
2022/10/23 14:01:24;;;;;;;;;;;20.50;99.90;;;;;;4998472;28;20388;-71
2022/10/23 14:03:53;;;;;;;;;;;20.40;99.90;;;;;;4993886;28;19929;-70
2022/10/23 14:06:20;;;;;;;;;;;20.40;99.90;;;;;;4994423;28;20451;-74
2022/10/23 14:08:47;;;;;;;;;;;20.30;99.90;;;;;;4997429;28;19926;-71
2022/10/23 14:11:14;;;;;;;;;;;20.30;99.90;;;;;;4997989;28;19929;-70
2022/10/23 14:13:41;;;;;;;;;;;20.30;99.90;;;;;;5007589;28;20439;-71
2022/10/23 14:16:09;;;;;;;;;;;20.20;99.90;;;;;;4998152;28;19926;-69
2022/10/23 14:18:36;;;;;;;;;;;20.20;99.90;;;;;;5004619;28;19926;-68
2022/10/23 14:21:05;;;;;;;;;;;20.20;99.90;;;;;;4997134;28;19936;-74
2022/10/23 14:23:32;;;;;;;;;;;20.10;99.90;;;;;;5004323;28;19930;-68
2022/10/23 14:26:01;;;;;;;;;;;20.00;99.90;;;;;;4996480;28;19932;-68
2022/10/23 14:28:28;;;;;;;;;;;19.90;99.90;;;;;;5002926;28;19925;-68
2022/10/23 14:30:55;;;;;;;;;;;19.80;99.90;;;;;;5003665;28;19933;-68
2022/10/23 14:33:21;;;;;;;;;;;19.70;99.90;;;;;;5006291;28;20454;-69
2022/10/23 14:35:49;;;;;;;;;;;19.70;99.90;;;;;;5000786;28;20348;-71
2022/10/23 14:38:17;;;;;;;;;;;19.60;99.90;;;;;;5007229;28;19955;-69
2022/10/23 14:40:44;;;;;;;;;;;19.50;99.90;;;;;;5006270;28;20400;-69
2022/10/23 14:43:11;;;;;;;;;;;19.60;99.90;;;;;;5002300;28;19925;-69
2022/10/23 14:45:38;;;;;;;;;;;19.60;99.90;;;;;;4999848;28;19976;-69
2022/10/23 14:48:05;;;;;;;;;;;19.50;99.90;;;;;;5000665;28;19925;-69
2022/10/23 14:50:32;;;;;;;;;;;19.50;99.90;;;;;;5007776;28;20352;-68
2022/10/23 14:52:59;;;;;;;;;;;19.50;99.90;;;;;;4997277;28;19989;-68
2022/10/23 14:55:27;;;;;;;;;;;19.40;99.90;;;;;;4995946;28;19933;-69
2022/10/23 14:57:54;;;;;;;;;;;19.30;99.90;;;;;;5005328;28;19929;-71
2022/10/23 15:00:21;;;;;;;;;;;19.30;99.90;;;;;;4997145;28;19925;-70
2022/10/23 15:02:48;;;;;;;;;;;19.20;99.90;;;;;;4992773;28;19925;-70
2022/10/23 15:05:14;;;;;;;;;;;19.20;99.90;;;;;;4996680;28;19984;-66
2022/10/23 15:07:41;;;;;;;;;;;19.30;99.90;;;;;;4996246;28;19944;-69
2022/10/23 15:10:08;;;;;;;;;;;19.20;99.90;;;;;;5007201;28;19929;-68
2022/10/23 15:12:37;;;;;;;;;;;19.20;99.90;;;;;;5007154;28;19972;-68
2022/10/23 15:15:03;;;;;;;;;;;19.10;99.90;;;;;;5008801;28;19933;-68
2022/10/23 15:17:31;;;;;;;;;;;19.10;99.90;;;;;;5001933;28;20352;-69
2022/10/23 15:19:57;;;;;;;;;;;19.00;99.90;;;;;;5001322;28;20016;-68
2022/10/23 15:22:24;;;;;;;;;;;18.90;99.90;;;;;;4991308;28;20028;-69
2022/10/23 15:24:51;;;;;;;;;;;18.90;99.90;;;;;;4993719;28;19985;-69
2022/10/23 15:27:18;;;;;;;;;;;18.80;99.90;;;;;;4998909;28;20033;-69
2022/10/23 15:29:46;;;;;;;;;;;18.70;99.90;;;;;;4997490;28;19925;-69
2022/10/23 15:32:13;;;;;;;;;;;18.70;99.90;;;;;;5002718;28;19934;-70
2022/10/23 15:34:41;;;;;;;;;;;18.60;99.90;;;;;;5010368;28;19979;-69
2022/10/23 15:37:09;;;;;;;;;;;18.50;99.90;;;;;;5002575;28;19933;-69
2022/10/23 15:39:36;;;;;;;;;;;18.50;99.90;;;;;;5000626;28;19933;-69
2022/10/23 15:42:04;;;;;;;;;;;18.50;99.90;;;;;;5005484;28;20336;-70
2022/10/23 15:44:32;;;;;;;;;;;18.50;99.90;;;;;;5000998;28;19932;-69
2022/10/23 15:47:00;;;;;;;;;;;18.50;99.90;;;;;;4994552;28;19926;-69
2022/10/23 15:49:28;;;;;;;;;;;18.50;99.90;;;;;;4996260;28;20356;-68
2022/10/23 15:51:55;;;;;;;;;;;18.40;99.90;;;;;;5000335;28;20492;-70
2022/10/23 15:54:22;;;;;;;;;;;18.40;99.90;;;;;;5001067;28;19925;-70
2022/10/23 15:56:50;;;;;;;;;;;18.40;99.90;;;;;;5004818;28;20001;-70
2022/10/23 15:59:17;;;;;;;;;;;18.30;99.90;;;;;;5000648;28;19932;-70
2022/10/23 16:01:44;;;;;;;;;;;18.30;99.90;;;;;;5005096;28;19930;-70
2022/10/23 16:04:13;;;;;;;;;;;18.30;99.90;;;;;;5007627;28;19926;-70
2022/10/23 16:06:40;;;;;;;;;;;18.30;99.90;;;;;;4996975;28;19925;-70
2022/10/23 16:09:06;;;;;;;;;;;18.30;99.90;;;;;;5003240;28;20295;-70
2022/10/23 16:11:34;;;;;;;;;;;18.20;99.90;;;;;;5007148;28;19955;-69
2022/10/23 16:14:02;;;;;;;;;;;18.20;99.90;;;;;;4995588;28;19929;-70
2022/10/23 16:16:29;;;;;;;;;;;18.10;99.90;;;;;;5009342;28;20340;-69
2022/10/23 16:18:56;;;;;;;;;;;18.10;99.90;;;;;;4998768;28;19965;-70
2022/10/23 16:21:25;;;;;;;;;;;18.00;99.90;;;;;;5000157;28;19926;-70
2022/10/23 16:23:53;;;;;;;;;;;18.00;99.90;;;;;;5006399;28;19925;-69
2022/10/23 16:26:19;;;;;;;;;;;18.00;99.90;;;;;;5005506;28;20304;-69
2022/10/23 16:28:47;;;;;;;;;;;18.00;99.90;;;;;;5002523;28;19992;-69
2022/10/23 16:31:15;;;;;;;;;;;17.90;99.90;;;;;;4998725;28;19925;-70
2022/10/23 16:33:42;;;;;;;;;;;17.80;99.90;;;;;;5005900;28;19976;-69
2022/10/23 16:36:09;;;;;;;;;;;17.80;99.90;;;;;;5008380;28;19929;-67
2022/10/23 16:38:57;;;;;;;;;;;17.80;99.90;;;;;;4998124;28;19961;-69
2022/10/23 16:41:44;;;;;;;;;;;17.80;99.90;;;;;;4997266;28;19958;-70
2022/10/23 16:44:17;;;;;;;;;;;17.80;99.90;;;;;;5003718;28;19926;-70
2022/10/23 16:46:57;;;;;;;;;;;17.80;99.90;;;;;;5000986;28;19925;-69
2022/10/23 16:49:24;;;;;;;;;;;17.70;99.90;;;;;;4996495;28;19953;-71
2022/10/23 16:51:50;;;;;;;;;;;17.70;99.90;;;;;;4999084;28;19926;-73
2022/10/23 16:54:19;;;;;;;;;;;17.70;99.90;;;;;;4996797;28;19933;-70
2022/10/23 16:56:47;;;;;;;;;;;17.70;99.90;;;;;;5002195;28;19926;-70
2022/10/23 16:59:13;;;;;;;;;;;17.70;99.90;;;;;;5003209;28;20404;-70
2022/10/23 17:01:40;;;;;;;;;;;17.60;99.90;;;;;;5001128;28;19925;-71
2022/10/23 17:04:07;;;;;;;;;;;17.60;99.90;;;;;;4998969;28;19933;-71
2022/10/23 17:06:35;;;;;;;;;;;17.60;99.90;;;;;;5006779;28;20463;-70
2022/10/23 17:09:02;;;;;;;;;;;17.60;99.90;;;;;;5004489;28;20439;-70
2022/10/23 17:11:31;;;;;;;;;;;17.60;99.90;;;;;;5007907;28;19932;-70
2022/10/23 17:14:01;;;;;;;;;;;17.50;99.90;;;;;;5004193;28;19926;-71
2022/10/23 17:16:28;;;;;;;;;;;17.50;99.90;;;;;;5001167;28;19933;-71
2022/10/23 17:18:55;;;;;;;;;;;17.40;99.90;;;;;;5000078;28;19940;-69
2022/10/23 17:21:22;;;;;;;;;;;17.40;99.90;;;;;;5004861;28;19953;-70
2022/10/23 17:23:49;;;;;;;;;;;17.40;99.90;;;;;;4999231;28;19925;-66
2022/10/23 17:26:18;;;;;;;;;;;17.30;99.90;;;;;;5001488;28;20040;-69
2022/10/23 17:28:46;;;;;;;;;;;17.30;99.90;;;;;;4996000;28;19969;-69
2022/10/23 17:31:14;;;;;;;;;;;17.30;99.90;;;;;;5002109;28;19926;-68
2022/10/23 17:33:41;;;;;;;;;;;17.20;99.90;;;;;;5003129;28;19926;-68
2022/10/23 17:36:08;;;;;;;;;;;17.20;99.90;;;;;;5002665;28;19929;-66
2022/10/23 17:38:35;;;;;;;;;;;17.10;99.90;;;;;;5000605;28;19925;-67